ولاية سيدي بلعباس, Algeria

09:49 PM CET on لبراêر 14, 2016 (GMT +0100)
Es Senia | | Change Station
CLOSE
Current Station
Airport
Location: Oran,
Elevation: 295 ft
Nearby Weather Stations

Elev 295 ft 35.63 °N, 0.60 °W | Updated 19 minutes ago

Partly Cloudy
غائم جزئياً
55 °F
Feels Like 55 °F
N
23
ريح متغير ريح from غرب
Gusts 39 mph

هذا اليوم
High -- | Low -- °F
--% Chance of Precip.
Yesterday
High -- | Low -- °F
Precip. -- في
الضغط 29.74 في
وضوح الرؤية 6.2 أميال
سحابات غيوم متفرقة 1600 ft
غيوم متفرقة 2000 ft
Few 2600 ft
نقطة الندى 41 °F
الرطوبة 58%
Rainfall 0.00 في
عمق الثلج Not available.
7:50 AM 6:43 PM
الهلال الأول, 45% visible
METAR DAOO 142030Z 26020G34KT 9999 SCT016TCU SCT020 FEW026CB 13/05 Q1007
الضغط 29.74 في
وضوح الرؤية 6.2 أميال
سحابات غيوم متفرقة 1600 ft
غيوم متفرقة 2000 ft
Few 2600 ft
نقطة الندى 41 °F
الرطوبة 58%
Rainfall 0.00 في
عمق الثلج Not available.
7:50 AM 6:43 PM
الهلال الأول, 45% visible
METAR DAOO 142030Z 26020G34KT 9999 SCT016TCU SCT020 FEW026CB 13/05 Q1007

10-Day Weather Forecast

No radar image for this location.
×

Almanac

علم الفلك

Feb. 14, 2016 Rise Set
Actual Time
Civil Twilight
Nautical Twilight
Astronomical Twilight
قمر
Length Of Visible Light
طول الیوم
Tomorrow will be .
, % of the Moon is Illuminated

Today's Extremes

Country Highs Country Lows

Community

WunderPhotos

Upload Photos

1,892,882 photos uploaded!

WunderBlog® & News

Nearby

جودة الهواء

  جودة الهواء AQ Index Pollutant
Not available.

عمق الثلج

Station Depth Elevation

Earthquake Activity

City Distance Mag. Time & Date
Minimum magnitude displayed is 2.5.

Coastal Water Temperatures

مكان درجات الحرارة

Stations

Nearby Weather Stations

Station Location الحرارة رياح باردة نقطة الندى الرطوبة ريح Precip. Elev تحديث Type